sensor_id;sensor_type;location;lat;lon;timestamp;P1;durP1;ratioP1;P2;durP2;ratioP2
7471;SDS011;3777;48.722;8.110;2022-09-27T00:01:21;2.77;;;2.40;;
7471;SDS011;3777;48.722;8.110;2022-09-27T00:03:51;3.40;;;2.53;;
7471;SDS011;3777;48.722;8.110;2022-09-27T00:06:21;3.77;;;2.10;;
7471;SDS011;3777;48.722;8.110;2022-09-27T00:08:49;2.60;;;2.30;;
7471;SDS011;3777;48.722;8.110;2022-09-27T00:11:25;4.37;;;2.27;;
7471;SDS011;3777;48.722;8.110;2022-09-27T00:13:54;3.50;;;2.20;;
7471;SDS011;3777;48.722;8.110;2022-09-27T00:16:23;2.70;;;2.30;;
7471;SDS011;3777;48.722;8.110;2022-09-27T00:18:52;4.37;;;2.00;;
7471;SDS011;3777;48.722;8.110;2022-09-27T00:21:24;2.73;;;2.20;;
7471;SDS011;3777;48.722;8.110;2022-09-27T00:23:52;4.73;;;2.40;;
7471;SDS011;3777;48.722;8.110;2022-09-27T00:26:19;4.13;;;2.33;;
7471;SDS011;3777;48.722;8.110;2022-09-27T00:28:46;2.23;;;2.03;;
7471;SDS011;3777;48.722;8.110;2022-09-27T00:31:16;3.60;;;2.20;;
7471;SDS011;3777;48.722;8.110;2022-09-27T00:33:47;3.07;;;2.30;;
7471;SDS011;3777;48.722;8.110;2022-09-27T00:36:14;4.77;;;2.37;;
7471;SDS011;3777;48.722;8.110;2022-09-27T00:38:42;3.70;;;2.30;;
7471;SDS011;3777;48.722;8.110;2022-09-27T00:41:11;3.20;;;2.40;;
7471;SDS011;3777;48.722;8.110;2022-09-27T00:43:45;2.93;;;2.30;;
7471;SDS011;3777;48.722;8.110;2022-09-27T00:46:13;2.30;;;2.07;;
7471;SDS011;3777;48.722;8.110;2022-09-27T00:48:46;2.80;;;2.17;;
7471;SDS011;3777;48.722;8.110;2022-09-27T00:51:15;2.40;;;2.10;;
7471;SDS011;3777;48.722;8.110;2022-09-27T00:53:42;3.40;;;2.20;;
7471;SDS011;3777;48.722;8.110;2022-09-27T00:56:16;2.57;;;2.03;;
7471;SDS011;3777;48.722;8.110;2022-09-27T00:58:47;2.13;;;2.00;;
7471;SDS011;3777;48.722;8.110;2022-09-27T01:01:19;2.40;;;1.97;;
7471;SDS011;3777;48.722;8.110;2022-09-27T01:03:50;4.27;;;2.13;;
7471;SDS011;3777;48.722;8.110;2022-09-27T01:06:21;3.97;;;2.07;;
7471;SDS011;3777;48.722;8.110;2022-09-27T01:08:49;2.57;;;2.10;;
7471;SDS011;3777;48.722;8.110;2022-09-27T01:11:18;4.07;;;2.13;;
7471;SDS011;3777;48.722;8.110;2022-09-27T01:14:09;2.47;;;2.27;;
7471;SDS011;3777;48.722;8.110;2022-09-27T01:16:52;2.80;;;2.03;;
7471;SDS011;3777;48.722;8.110;2022-09-27T01:19:37;3.30;;;2.00;;
7471;SDS011;3777;48.722;8.110;2022-09-27T01:22:22;2.23;;;1.80;;
7471;SDS011;3777;48.722;8.110;2022-09-27T01:24:55;2.00;;;1.80;;
7471;SDS011;3777;48.722;8.110;2022-09-27T01:30:43;3.37;;;1.87;;
7471;SDS011;3777;48.722;8.110;2022-09-27T01:33:21;3.83;;;2.30;;
7471;SDS011;3777;48.722;8.110;2022-09-27T01:35:58;3.03;;;2.10;;
7471;SDS011;3777;48.722;8.110;2022-09-27T01:38:44;2.43;;;2.17;;
7471;SDS011;3777;48.722;8.110;2022-09-27T01:41:21;2.87;;;2.53;;
7471;SDS011;3777;48.722;8.110;2022-09-27T01:43:54;3.60;;;2.20;;
7471;SDS011;3777;48.722;8.110;2022-09-27T01:46:28;2.50;;;2.00;;
7471;SDS011;3777;48.722;8.110;2022-09-27T01:49:01;4.17;;;2.70;;
7471;SDS011;3777;48.722;8.110;2022-09-27T01:51:34;4.17;;;2.10;;
7471;SDS011;3777;48.722;8.110;2022-09-27T01:54:05;3.20;;;2.10;;
7471;SDS011;3777;48.722;8.110;2022-09-27T01:56:34;2.73;;;2.20;;
7471;SDS011;3777;48.722;8.110;2022-09-27T01:59:07;2.63;;;2.10;;
7471;SDS011;3777;48.722;8.110;2022-09-27T02:01:38;3.30;;;2.50;;
7471;SDS011;3777;48.722;8.110;2022-09-27T02:04:09;4.20;;;2.30;;
7471;SDS011;3777;48.722;8.110;2022-09-27T02:06:41;4.83;;;2.80;;
7471;SDS011;3777;48.722;8.110;2022-09-27T02:09:12;4.77;;;2.30;;
7471;SDS011;3777;48.722;8.110;2022-09-27T02:11:43;6.57;;;2.20;;
7471;SDS011;3777;48.722;8.110;2022-09-27T02:14:14;5.03;;;2.40;;
7471;SDS011;3777;48.722;8.110;2022-09-27T02:16:47;5.53;;;2.70;;
7471;SDS011;3777;48.722;8.110;2022-09-27T02:19:18;5.77;;;2.50;;
7471;SDS011;3777;48.722;8.110;2022-09-27T02:21:57;4.13;;;2.40;;
7471;SDS011;3777;48.722;8.110;2022-09-27T02:24:32;4.83;;;2.70;;
7471;SDS011;3777;48.722;8.110;2022-09-27T02:27:08;4.07;;;2.53;;
7471;SDS011;3777;48.722;8.110;2022-09-27T02:29:40;4.80;;;2.40;;
7471;SDS011;3777;48.722;8.110;2022-09-27T02:32:16;3.83;;;2.30;;
7471;SDS011;3777;48.722;8.110;2022-09-27T02:34:43;4.43;;;2.47;;
7471;SDS011;3777;48.722;8.110;2022-09-27T02:37:12;4.30;;;2.00;;
7471;SDS011;3777;48.722;8.110;2022-09-27T02:39:39;5.93;;;2.17;;
7471;SDS011;3777;48.722;8.110;2022-09-27T02:42:07;4.33;;;2.40;;
7471;SDS011;3777;48.722;8.110;2022-09-27T02:44:35;3.23;;;2.40;;
7471;SDS011;3777;48.722;8.110;2022-09-27T02:47:07;4.37;;;2.57;;
7471;SDS011;3777;48.722;8.110;2022-09-27T02:49:48;4.40;;;2.50;;
7471;SDS011;3777;48.722;8.110;2022-09-27T02:52:27;6.90;;;2.53;;
7471;SDS011;3777;48.722;8.110;2022-09-27T02:55:05;5.17;;;2.50;;
7471;SDS011;3777;48.722;8.110;2022-09-27T02:57:40;6.57;;;2.50;;
7471;SDS011;3777;48.722;8.110;2022-09-27T03:00:21;4.73;;;2.90;;
7471;SDS011;3777;48.722;8.110;2022-09-27T03:02:56;5.60;;;2.70;;
7471;SDS011;3777;48.722;8.110;2022-09-27T03:05:31;9.03;;;3.10;;
7471;SDS011;3777;48.722;8.110;2022-09-27T03:08:03;7.23;;;3.20;;
7471;SDS011;3777;48.722;8.110;2022-09-27T03:10:30;5.33;;;2.83;;
7471;SDS011;3777;48.722;8.110;2022-09-27T03:12:57;6.97;;;2.87;;
7471;SDS011;3777;48.722;8.110;2022-09-27T03:15:24;5.27;;;2.63;;
7471;SDS011;3777;48.722;8.110;2022-09-27T03:17:51;8.23;;;3.13;;
7471;SDS011;3777;48.722;8.110;2022-09-27T03:20:18;8.60;;;3.17;;
7471;SDS011;3777;48.722;8.110;2022-09-27T03:22:47;5.93;;;3.00;;
7471;SDS011;3777;48.722;8.110;2022-09-27T03:25:14;6.07;;;2.90;;
7471;SDS011;3777;48.722;8.110;2022-09-27T03:27:42;6.20;;;3.07;;
7471;SDS011;3777;48.722;8.110;2022-09-27T03:30:09;6.13;;;2.60;;
7471;SDS011;3777;48.722;8.110;2022-09-27T03:32:40;4.77;;;2.30;;
7471;SDS011;3777;48.722;8.110;2022-09-27T03:35:08;7.83;;;2.90;;
7471;SDS011;3777;48.722;8.110;2022-09-27T03:37:35;4.97;;;2.27;;
7471;SDS011;3777;48.722;8.110;2022-09-27T03:40:04;5.40;;;2.57;;
7471;SDS011;3777;48.722;8.110;2022-09-27T03:42:33;5.33;;;2.70;;
7471;SDS011;3777;48.722;8.110;2022-09-27T03:45:00;6.13;;;2.40;;
7471;SDS011;3777;48.722;8.110;2022-09-27T03:47:27;5.80;;;2.40;;
7471;SDS011;3777;48.722;8.110;2022-09-27T03:49:54;8.03;;;2.63;;
7471;SDS011;3777;48.722;8.110;2022-09-27T03:52:21;3.33;;;2.20;;
7471;SDS011;3777;48.722;8.110;2022-09-27T03:54:48;7.03;;;2.50;;
7471;SDS011;3777;48.722;8.110;2022-09-27T03:57:17;5.53;;;2.30;;
7471;SDS011;3777;48.722;8.110;2022-09-27T03:59:44;5.73;;;2.27;;
7471;SDS011;3777;48.722;8.110;2022-09-27T04:02:11;6.77;;;2.60;;
7471;SDS011;3777;48.722;8.110;2022-09-27T04:04:38;3.67;;;2.30;;
7471;SDS011;3777;48.722;8.110;2022-09-27T04:07:05;6.00;;;2.53;;
7471;SDS011;3777;48.722;8.110;2022-09-27T04:09:34;6.17;;;2.37;;
7471;SDS011;3777;48.722;8.110;2022-09-27T04:12:01;6.40;;;2.70;;
7471;SDS011;3777;48.722;8.110;2022-09-27T04:14:30;8.50;;;2.73;;
7471;SDS011;3777;48.722;8.110;2022-09-27T04:16:57;4.27;;;2.40;;
7471;SDS011;3777;48.722;8.110;2022-09-27T04:19:24;4.97;;;2.70;;
7471;SDS011;3777;48.722;8.110;2022-09-27T04:21:51;7.40;;;2.77;;
7471;SDS011;3777;48.722;8.110;2022-09-27T04:24:18;6.00;;;3.20;;
7471;SDS011;3777;48.722;8.110;2022-09-27T04:26:45;6.83;;;2.80;;
7471;SDS011;3777;48.722;8.110;2022-09-27T04:29:13;8.90;;;2.93;;
7471;SDS011;3777;48.722;8.110;2022-09-27T04:31:42;8.07;;;3.20;;
7471;SDS011;3777;48.722;8.110;2022-09-27T04:34:09;7.17;;;3.20;;
7471;SDS011;3777;48.722;8.110;2022-09-27T04:36:36;5.63;;;2.90;;
7471;SDS011;3777;48.722;8.110;2022-09-27T04:39:04;7.73;;;3.23;;
7471;SDS011;3777;48.722;8.110;2022-09-27T04:41:33;4.63;;;2.80;;
7471;SDS011;3777;48.722;8.110;2022-09-27T04:44:00;6.03;;;2.80;;
7471;SDS011;3777;48.722;8.110;2022-09-27T04:46:28;4.97;;;2.57;;
7471;SDS011;3777;48.722;8.110;2022-09-27T04:48:57;6.80;;;2.67;;
7471;SDS011;3777;48.722;8.110;2022-09-27T04:51:25;5.10;;;2.57;;
7471;SDS011;3777;48.722;8.110;2022-09-27T04:53:54;5.70;;;2.70;;
7471;SDS011;3777;48.722;8.110;2022-09-27T04:56:21;4.07;;;2.23;;
7471;SDS011;3777;48.722;8.110;2022-09-27T04:58:48;3.80;;;2.40;;
7471;SDS011;3777;48.722;8.110;2022-09-27T05:01:15;5.20;;;2.30;;
7471;SDS011;3777;48.722;8.110;2022-09-27T05:03:42;6.10;;;1.97;;
7471;SDS011;3777;48.722;8.110;2022-09-27T05:06:10;3.27;;;1.73;;
7471;SDS011;3777;48.722;8.110;2022-09-27T05:08:37;3.37;;;1.73;;
7471;SDS011;3777;48.722;8.110;2022-09-27T05:11:04;3.13;;;1.50;;
7471;SDS011;3777;48.722;8.110;2022-09-27T05:13:31;4.10;;;1.70;;
7471;SDS011;3777;48.722;8.110;2022-09-27T05:16:01;4.93;;;1.70;;
7471;SDS011;3777;48.722;8.110;2022-09-27T05:18:29;2.80;;;1.60;;
7471;SDS011;3777;48.722;8.110;2022-09-27T05:20:56;2.90;;;1.50;;
7471;SDS011;3777;48.722;8.110;2022-09-27T05:23:25;2.33;;;1.50;;
7471;SDS011;3777;48.722;8.110;2022-09-27T05:25:52;2.63;;;1.70;;
7471;SDS011;3777;48.722;8.110;2022-09-27T05:28:20;2.07;;;1.53;;
7471;SDS011;3777;48.722;8.110;2022-09-27T05:30:47;2.37;;;1.73;;
7471;SDS011;3777;48.722;8.110;2022-09-27T05:33:14;2.83;;;1.50;;
7471;SDS011;3777;48.722;8.110;2022-09-27T05:35:42;2.63;;;1.60;;
7471;SDS011;3777;48.722;8.110;2022-09-27T05:38:11;2.53;;;1.50;;
7471;SDS011;3777;48.722;8.110;2022-09-27T05:40:40;2.33;;;1.77;;
7471;SDS011;3777;48.722;8.110;2022-09-27T05:43:09;2.20;;;1.60;;
7471;SDS011;3777;48.722;8.110;2022-09-27T05:45:36;2.50;;;1.80;;
7471;SDS011;3777;48.722;8.110;2022-09-27T05:48:03;1.67;;;1.40;;
7471;SDS011;3777;48.722;8.110;2022-09-27T05:50:30;2.93;;;1.77;;
7471;SDS011;3777;48.722;8.110;2022-09-27T05:52:57;5.50;;;2.00;;
7471;SDS011;3777;48.722;8.110;2022-09-27T05:55:24;2.40;;;1.50;;
7471;SDS011;3777;48.722;8.110;2022-09-27T05:57:57;4.57;;;1.63;;
7471;SDS011;3777;48.722;8.110;2022-09-27T06:00:25;3.13;;;1.60;;
7471;SDS011;3777;48.722;8.110;2022-09-27T06:02:53;2.67;;;1.60;;
7471;SDS011;3777;48.722;8.110;2022-09-27T06:05:21;3.30;;;1.80;;
7471;SDS011;3777;48.722;8.110;2022-09-27T06:07:49;3.33;;;1.83;;
7471;SDS011;3777;48.722;8.110;2022-09-27T06:10:16;2.80;;;1.80;;
7471;SDS011;3777;48.722;8.110;2022-09-27T06:12:45;5.80;;;1.97;;
7471;SDS011;3777;48.722;8.110;2022-09-27T06:15:13;3.00;;;1.80;;
7471;SDS011;3777;48.722;8.110;2022-09-27T06:17:40;4.30;;;1.90;;
7471;SDS011;3777;48.722;8.110;2022-09-27T06:20:08;2.30;;;1.63;;
7471;SDS011;3777;48.722;8.110;2022-09-27T06:22:35;3.63;;;1.80;;
7471;SDS011;3777;48.722;8.110;2022-09-27T06:25:02;3.33;;;1.90;;
7471;SDS011;3777;48.722;8.110;2022-09-27T06:27:29;4.73;;;1.97;;
7471;SDS011;3777;48.722;8.110;2022-09-27T06:29:56;2.93;;;1.70;;
7471;SDS011;3777;48.722;8.110;2022-09-27T06:32:25;3.67;;;1.80;;
7471;SDS011;3777;48.722;8.110;2022-09-27T06:34:52;2.90;;;1.70;;
7471;SDS011;3777;48.722;8.110;2022-09-27T06:37:19;3.43;;;1.70;;
7471;SDS011;3777;48.722;8.110;2022-09-27T06:39:50;2.70;;;1.60;;
7471;SDS011;3777;48.722;8.110;2022-09-27T06:42:17;2.07;;;1.67;;
7471;SDS011;3777;48.722;8.110;2022-09-27T06:44:45;2.07;;;1.60;;
7471;SDS011;3777;48.722;8.110;2022-09-27T06:47:14;3.80;;;1.70;;
7471;SDS011;3777;48.722;8.110;2022-09-27T06:49:42;2.97;;;2.10;;
7471;SDS011;3777;48.722;8.110;2022-09-27T06:52:10;3.87;;;1.90;;
7471;SDS011;3777;48.722;8.110;2022-09-27T06:54:37;4.87;;;2.30;;
7471;SDS011;3777;48.722;8.110;2022-09-27T06:57:04;3.53;;;2.40;;
7471;SDS011;3777;48.722;8.110;2022-09-27T06:59:31;5.57;;;2.63;;
7471;SDS011;3777;48.722;8.110;2022-09-27T07:02:15;3.43;;;2.10;;
7471;SDS011;3777;48.722;8.110;2022-09-27T07:04:44;5.80;;;2.40;;
7471;SDS011;3777;48.722;8.110;2022-09-27T07:07:11;2.43;;;2.07;;
7471;SDS011;3777;48.722;8.110;2022-09-27T07:09:38;2.90;;;2.00;;
7471;SDS011;3777;48.722;8.110;2022-09-27T07:12:05;4.40;;;2.20;;
7471;SDS011;3777;48.722;8.110;2022-09-27T07:14:32;3.03;;;2.00;;
7471;SDS011;3777;48.722;8.110;2022-09-27T07:17:00;4.13;;;2.10;;
7471;SDS011;3777;48.722;8.110;2022-09-27T07:19:27;2.33;;;2.00;;
7471;SDS011;3777;48.722;8.110;2022-09-27T07:21:55;5.20;;;2.33;;
7471;SDS011;3777;48.722;8.110;2022-09-27T07:24:22;3.77;;;2.10;;
7471;SDS011;3777;48.722;8.110;2022-09-27T07:26:49;4.57;;;1.80;;
7471;SDS011;3777;48.722;8.110;2022-09-27T07:29:16;4.13;;;2.10;;
7471;SDS011;3777;48.722;8.110;2022-09-27T07:31:43;2.87;;;1.90;;
7471;SDS011;3777;48.722;8.110;2022-09-27T07:34:10;2.53;;;2.03;;
7471;SDS011;3777;48.722;8.110;2022-09-27T07:36:37;2.37;;;1.97;;
7471;SDS011;3777;48.722;8.110;2022-09-27T07:39:06;3.03;;;1.80;;
7471;SDS011;3777;48.722;8.110;2022-09-27T07:41:33;2.57;;;1.83;;
7471;SDS011;3777;48.722;8.110;2022-09-27T07:44:00;4.03;;;2.00;;
7471;SDS011;3777;48.722;8.110;2022-09-27T07:46:28;3.20;;;2.20;;
7471;SDS011;3777;48.722;8.110;2022-09-27T07:48:55;3.97;;;2.17;;
7471;SDS011;3777;48.722;8.110;2022-09-27T07:51:22;4.00;;;1.80;;
7471;SDS011;3777;48.722;8.110;2022-09-27T07:53:49;2.63;;;1.70;;
7471;SDS011;3777;48.722;8.110;2022-09-27T07:56:18;3.50;;;1.80;;
7471;SDS011;3777;48.722;8.110;2022-09-27T07:58:45;4.40;;;2.23;;
7471;SDS011;3777;48.722;8.110;2022-09-27T08:01:12;2.73;;;1.97;;
7471;SDS011;3777;48.722;8.110;2022-09-27T08:03:39;3.07;;;1.90;;
7471;SDS011;3777;48.722;8.110;2022-09-27T08:06:06;3.00;;;1.80;;
7471;SDS011;3777;48.722;8.110;2022-09-27T08:08:33;3.70;;;1.90;;
7471;SDS011;3777;48.722;8.110;2022-09-27T08:11:09;3.27;;;1.80;;
7471;SDS011;3777;48.722;8.110;2022-09-27T08:13:40;3.83;;;2.40;;
7471;SDS011;3777;48.722;8.110;2022-09-27T08:16:07;3.60;;;1.90;;
7471;SDS011;3777;48.722;8.110;2022-09-27T08:18:35;4.10;;;1.60;;
7471;SDS011;3777;48.722;8.110;2022-09-27T08:21:02;3.20;;;2.07;;
7471;SDS011;3777;48.722;8.110;2022-09-27T08:23:29;2.63;;;1.87;;
7471;SDS011;3777;48.722;8.110;2022-09-27T08:25:57;2.83;;;1.47;;
7471;SDS011;3777;48.722;8.110;2022-09-27T08:28:24;2.13;;;1.63;;
7471;SDS011;3777;48.722;8.110;2022-09-27T08:30:53;2.07;;;1.60;;
7471;SDS011;3777;48.722;8.110;2022-09-27T08:33:20;3.03;;;1.70;;
7471;SDS011;3777;48.722;8.110;2022-09-27T08:35:49;2.27;;;1.73;;
7471;SDS011;3777;48.722;8.110;2022-09-27T08:38:16;2.63;;;1.83;;
7471;SDS011;3777;48.722;8.110;2022-09-27T08:40:46;3.10;;;1.60;;
7471;SDS011;3777;48.722;8.110;2022-09-27T08:43:21;3.43;;;1.90;;
7471;SDS011;3777;48.722;8.110;2022-09-27T08:46:01;3.73;;;1.80;;
7471;SDS011;3777;48.722;8.110;2022-09-27T08:48:35;3.23;;;2.10;;
7471;SDS011;3777;48.722;8.110;2022-09-27T08:51:03;4.10;;;2.13;;
7471;SDS011;3777;48.722;8.110;2022-09-27T08:53:33;3.73;;;2.47;;
7471;SDS011;3777;48.722;8.110;2022-09-27T08:56:06;4.17;;;2.50;;
7471;SDS011;3777;48.722;8.110;2022-09-27T08:58:36;3.27;;;2.23;;
7471;SDS011;3777;48.722;8.110;2022-09-27T09:01:11;3.23;;;2.70;;
7471;SDS011;3777;48.722;8.110;2022-09-27T09:03:42;5.07;;;2.73;;
7471;SDS011;3777;48.722;8.110;2022-09-27T09:06:15;4.03;;;3.00;;
7471;SDS011;3777;48.722;8.110;2022-09-27T09:08:51;3.10;;;2.73;;
7471;SDS011;3777;48.722;8.110;2022-09-27T09:11:31;3.57;;;2.47;;
7471;SDS011;3777;48.722;8.110;2022-09-27T09:14:35;3.43;;;2.47;;
7471;SDS011;3777;48.722;8.110;2022-09-27T09:17:14;4.23;;;2.67;;
7471;SDS011;3777;48.722;8.110;2022-09-27T09:19:56;3.40;;;2.60;;
7471;SDS011;3777;48.722;8.110;2022-09-27T09:22:39;4.20;;;2.73;;
7471;SDS011;3777;48.722;8.110;2022-09-27T09:25:20;3.90;;;2.30;;
7471;SDS011;3777;48.722;8.110;2022-09-27T09:27:52;3.40;;;2.10;;
7471;SDS011;3777;48.722;8.110;2022-09-27T09:30:29;3.23;;;2.33;;
7471;SDS011;3777;48.722;8.110;2022-09-27T09:33:08;4.83;;;2.30;;
7471;SDS011;3777;48.722;8.110;2022-09-27T09:35:44;3.40;;;2.20;;
7471;SDS011;3777;48.722;8.110;2022-09-27T09:38:19;4.63;;;2.77;;
7471;SDS011;3777;48.722;8.110;2022-09-27T09:40:51;4.67;;;2.70;;
7471;SDS011;3777;48.722;8.110;2022-09-27T09:43:28;4.23;;;2.10;;
7471;SDS011;3777;48.722;8.110;2022-09-27T09:45:59;3.53;;;2.30;;
7471;SDS011;3777;48.722;8.110;2022-09-27T09:48:31;2.50;;;2.00;;
7471;SDS011;3777;48.722;8.110;2022-09-27T09:51:05;6.33;;;2.40;;
7471;SDS011;3777;48.722;8.110;2022-09-27T09:53:40;3.40;;;1.90;;
7471;SDS011;3777;48.722;8.110;2022-09-27T09:56:13;2.63;;;1.90;;
7471;SDS011;3777;48.722;8.110;2022-09-27T09:58:46;4.53;;;1.73;;
7471;SDS011;3777;48.722;8.110;2022-09-27T10:01:19;3.07;;;2.00;;
7471;SDS011;3777;48.722;8.110;2022-09-27T10:03:48;2.60;;;1.90;;
7471;SDS011;3777;48.722;8.110;2022-09-27T10:06:15;4.10;;;1.70;;
7471;SDS011;3777;48.722;8.110;2022-09-27T10:08:45;2.77;;;2.00;;
7471;SDS011;3777;48.722;8.110;2022-09-27T10:11:16;4.00;;;2.10;;
7471;SDS011;3777;48.722;8.110;2022-09-27T10:13:46;3.27;;;1.90;;
7471;SDS011;3777;48.722;8.110;2022-09-27T10:16:15;6.13;;;1.90;;
7471;SDS011;3777;48.722;8.110;2022-09-27T10:18:43;2.57;;;1.90;;
7471;SDS011;3777;48.722;8.110;2022-09-27T10:21:12;2.87;;;1.60;;
7471;SDS011;3777;48.722;8.110;2022-09-27T10:24:02;2.70;;;1.70;;
7471;SDS011;3777;48.722;8.110;2022-09-27T10:26:34;7.40;;;2.03;;
7471;SDS011;3777;48.722;8.110;2022-09-27T10:29:13;3.30;;;1.90;;
7471;SDS011;3777;48.722;8.110;2022-09-27T10:31:54;3.00;;;1.50;;
7471;SDS011;3777;48.722;8.110;2022-09-27T10:34:29;4.17;;;1.97;;
7471;SDS011;3777;48.722;8.110;2022-09-27T10:37:08;1.47;;;1.30;;
7471;SDS011;3777;48.722;8.110;2022-09-27T10:39:44;2.50;;;1.53;;
7471;SDS011;3777;48.722;8.110;2022-09-27T10:42:21;2.60;;;1.77;;
7471;SDS011;3777;48.722;8.110;2022-09-27T10:44:57;1.80;;;1.70;;
7471;SDS011;3777;48.722;8.110;2022-09-27T10:47:44;3.73;;;1.60;;
7471;SDS011;3777;48.722;8.110;2022-09-27T10:50:14;2.60;;;1.77;;
7471;SDS011;3777;48.722;8.110;2022-09-27T10:52:46;2.10;;;1.37;;
7471;SDS011;3777;48.722;8.110;2022-09-27T10:55:18;5.80;;;1.80;;
7471;SDS011;3777;48.722;8.110;2022-09-27T10:57:48;3.10;;;1.50;;
7471;SDS011;3777;48.722;8.110;2022-09-27T11:00:19;3.53;;;1.50;;
7471;SDS011;3777;48.722;8.110;2022-09-27T11:02:50;1.63;;;1.33;;
7471;SDS011;3777;48.722;8.110;2022-09-27T11:05:28;3.83;;;1.60;;
7471;SDS011;3777;48.722;8.110;2022-09-27T11:07:58;1.67;;;1.30;;
7471;SDS011;3777;48.722;8.110;2022-09-27T11:10:29;3.00;;;1.50;;
7471;SDS011;3777;48.722;8.110;2022-09-27T11:13:04;1.87;;;1.30;;
7471;SDS011;3777;48.722;8.110;2022-09-27T11:15:41;1.93;;;1.60;;
7471;SDS011;3777;48.722;8.110;2022-09-27T11:18:24;3.13;;;1.60;;
7471;SDS011;3777;48.722;8.110;2022-09-27T11:20:59;4.10;;;1.50;;
7471;SDS011;3777;48.722;8.110;2022-09-27T11:23:37;2.63;;;1.50;;
7471;SDS011;3777;48.722;8.110;2022-09-27T11:26:38;2.00;;;1.37;;
7471;SDS011;3777;48.722;8.110;2022-09-27T11:29:17;3.50;;;1.50;;
7471;SDS011;3777;48.722;8.110;2022-09-27T11:31:55;4.17;;;1.40;;
7471;SDS011;3777;48.722;8.110;2022-09-27T11:34:35;2.80;;;1.33;;
7471;SDS011;3777;48.722;8.110;2022-09-27T11:37:20;1.47;;;1.30;;
7471;SDS011;3777;48.722;8.110;2022-09-27T11:39:58;1.73;;;1.33;;
7471;SDS011;3777;48.722;8.110;2022-09-27T11:42:46;3.37;;;1.30;;
7471;SDS011;3777;48.722;8.110;2022-09-27T11:45:44;3.83;;;1.70;;
7471;SDS011;3777;48.722;8.110;2022-09-27T11:48:23;2.13;;;1.50;;
7471;SDS011;3777;48.722;8.110;2022-09-27T11:51:07;2.53;;;1.40;;
7471;SDS011;3777;48.722;8.110;2022-09-27T11:53:56;3.40;;;1.50;;
7471;SDS011;3777;48.722;8.110;2022-09-27T11:56:33;1.93;;;1.40;;
7471;SDS011;3777;48.722;8.110;2022-09-27T11:59:15;1.50;;;1.33;;
7471;SDS011;3777;48.722;8.110;2022-09-27T12:02:13;2.03;;;1.40;;
7471;SDS011;3777;48.722;8.110;2022-09-27T12:05:05;3.10;;;1.60;;
7471;SDS011;3777;48.722;8.110;2022-09-27T12:07:47;1.83;;;1.10;;
7471;SDS011;3777;48.722;8.110;2022-09-27T12:10:23;2.40;;;1.30;;
7471;SDS011;3777;48.722;8.110;2022-09-27T12:12:51;2.03;;;1.23;;
7471;SDS011;3777;48.722;8.110;2022-09-27T12:15:23;1.23;;;1.00;;
7471;SDS011;3777;48.722;8.110;2022-09-27T12:17:57;2.13;;;1.10;;
7471;SDS011;3777;48.722;8.110;2022-09-27T12:20:33;1.47;;;1.10;;
7471;SDS011;3777;48.722;8.110;2022-09-27T12:23:05;2.20;;;1.20;;
7471;SDS011;3777;48.722;8.110;2022-09-27T12:25:36;2.73;;;1.40;;
7471;SDS011;3777;48.722;8.110;2022-09-27T12:28:07;2.17;;;1.20;;
7471;SDS011;3777;48.722;8.110;2022-09-27T12:30:41;2.07;;;1.30;;
7471;SDS011;3777;48.722;8.110;2022-09-27T12:33:15;2.40;;;1.40;;
7471;SDS011;3777;48.722;8.110;2022-09-27T12:35:49;1.60;;;1.27;;
7471;SDS011;3777;48.722;8.110;2022-09-27T12:38:19;2.03;;;1.20;;
7471;SDS011;3777;48.722;8.110;2022-09-27T12:40:50;3.00;;;1.43;;
7471;SDS011;3777;48.722;8.110;2022-09-27T12:43:20;2.30;;;1.30;;
7471;SDS011;3777;48.722;8.110;2022-09-27T12:45:52;2.33;;;1.40;;
7471;SDS011;3777;48.722;8.110;2022-09-27T12:48:31;2.40;;;1.50;;
7471;SDS011;3777;48.722;8.110;2022-09-27T12:51:07;1.70;;;1.30;;
7471;SDS011;3777;48.722;8.110;2022-09-27T12:53:40;1.23;;;1.00;;
7471;SDS011;3777;48.722;8.110;2022-09-27T12:56:29;1.87;;;1.00;;
7471;SDS011;3777;48.722;8.110;2022-09-27T12:59:20;1.27;;;1.00;;
7471;SDS011;3777;48.722;8.110;2022-09-27T13:05:11;1.30;;;1.20;;
7471;SDS011;3777;48.722;8.110;2022-09-27T13:08:14;2.50;;;1.40;;
7471;SDS011;3777;48.722;8.110;2022-09-27T13:10:53;1.17;;;1.07;;
7471;SDS011;3777;48.722;8.110;2022-09-27T13:13:31;2.70;;;1.20;;
7471;SDS011;3777;48.722;8.110;2022-09-27T13:15:59;2.77;;;0.90;;
7471;SDS011;3777;48.722;8.110;2022-09-27T13:18:29;1.00;;;0.90;;
7471;SDS011;3777;48.722;8.110;2022-09-27T13:21:00;1.87;;;0.90;;
7471;SDS011;3777;48.722;8.110;2022-09-27T13:26:20;2.37;;;1.20;;
7471;SDS011;3777;48.722;8.110;2022-09-27T13:28:58;2.60;;;1.20;;
7471;SDS011;3777;48.722;8.110;2022-09-27T13:34:50;7.37;;;1.60;;
7471;SDS011;3777;48.722;8.110;2022-09-27T13:40:27;5.97;;;1.50;;
7471;SDS011;3777;48.722;8.110;2022-09-27T13:43:09;4.17;;;1.87;;
7471;SDS011;3777;48.722;8.110;2022-09-27T13:46:06;2.27;;;1.50;;
7471;SDS011;3777;48.722;8.110;2022-09-27T13:48:43;1.70;;;1.57;;
7471;SDS011;3777;48.722;8.110;2022-09-27T13:51:23;1.50;;;1.40;;
7471;SDS011;3777;48.722;8.110;2022-09-27T13:54:00;5.17;;;1.70;;
7471;SDS011;3777;48.722;8.110;2022-09-27T13:59:16;4.40;;;1.60;;
7471;SDS011;3777;48.722;8.110;2022-09-27T14:01:49;2.80;;;1.40;;
7471;SDS011;3777;48.722;8.110;2022-09-27T14:04:19;1.93;;;1.27;;
7471;SDS011;3777;48.722;8.110;2022-09-27T14:06:50;3.93;;;1.40;;
7471;SDS011;3777;48.722;8.110;2022-09-27T14:09:23;1.83;;;1.30;;
7471;SDS011;3777;48.722;8.110;2022-09-27T14:11:57;3.23;;;1.60;;
7471;SDS011;3777;48.722;8.110;2022-09-27T14:14:26;2.10;;;1.20;;
7471;SDS011;3777;48.722;8.110;2022-09-27T14:16:57;2.10;;;1.27;;
7471;SDS011;3777;48.722;8.110;2022-09-27T14:19:26;2.20;;;1.33;;
7471;SDS011;3777;48.722;8.110;2022-09-27T14:21:54;2.33;;;1.20;;
7471;SDS011;3777;48.722;8.110;2022-09-27T14:24:23;1.77;;;1.40;;
7471;SDS011;3777;48.722;8.110;2022-09-27T14:27:05;2.80;;;1.23;;
7471;SDS011;3777;48.722;8.110;2022-09-27T14:29:38;1.63;;;1.20;;
7471;SDS011;3777;48.722;8.110;2022-09-27T14:32:09;3.17;;;1.70;;
7471;SDS011;3777;48.722;8.110;2022-09-27T14:34:38;2.40;;;1.30;;
7471;SDS011;3777;48.722;8.110;2022-09-27T14:37:11;2.53;;;1.30;;
7471;SDS011;3777;48.722;8.110;2022-09-27T14:39:52;1.90;;;1.10;;
7471;SDS011;3777;48.722;8.110;2022-09-27T14:42:26;1.87;;;1.30;;
7471;SDS011;3777;48.722;8.110;2022-09-27T14:44:58;2.93;;;1.40;;
7471;SDS011;3777;48.722;8.110;2022-09-27T14:47:28;4.83;;;1.90;;
7471;SDS011;3777;48.722;8.110;2022-09-27T14:49:57;1.60;;;1.10;;
7471;SDS011;3777;48.722;8.110;2022-09-27T14:52:26;2.17;;;1.17;;
7471;SDS011;3777;48.722;8.110;2022-09-27T14:54:56;5.07;;;1.50;;
7471;SDS011;3777;48.722;8.110;2022-09-27T14:57:27;1.60;;;1.10;;
7471;SDS011;3777;48.722;8.110;2022-09-27T14:59:58;2.57;;;1.20;;
7471;SDS011;3777;48.722;8.110;2022-09-27T15:02:29;2.67;;;1.33;;
7471;SDS011;3777;48.722;8.110;2022-09-27T15:04:57;1.60;;;1.30;;
7471;SDS011;3777;48.722;8.110;2022-09-27T15:07:24;2.53;;;1.40;;
7471;SDS011;3777;48.722;8.110;2022-09-27T15:09:52;2.50;;;1.30;;
7471;SDS011;3777;48.722;8.110;2022-09-27T15:12:21;1.90;;;1.10;;
7471;SDS011;3777;48.722;8.110;2022-09-27T15:14:52;1.50;;;1.10;;
7471;SDS011;3777;48.722;8.110;2022-09-27T15:17:22;1.87;;;1.30;;
7471;SDS011;3777;48.722;8.110;2022-09-27T15:19:57;1.90;;;1.30;;
7471;SDS011;3777;48.722;8.110;2022-09-27T15:22:34;3.80;;;1.40;;
7471;SDS011;3777;48.722;8.110;2022-09-27T15:25:06;2.33;;;1.30;;
7471;SDS011;3777;48.722;8.110;2022-09-27T15:27:45;2.57;;;1.33;;
7471;SDS011;3777;48.722;8.110;2022-09-27T15:30:17;4.67;;;1.30;;
7471;SDS011;3777;48.722;8.110;2022-09-27T15:32:48;1.67;;;1.20;;
7471;SDS011;3777;48.722;8.110;2022-09-27T15:35:20;2.83;;;1.47;;
7471;SDS011;3777;48.722;8.110;2022-09-27T15:38:01;2.07;;;1.30;;
7471;SDS011;3777;48.722;8.110;2022-09-27T15:43:36;1.80;;;1.50;;
7471;SDS011;3777;48.722;8.110;2022-09-27T15:46:26;2.30;;;1.43;;
7471;SDS011;3777;48.722;8.110;2022-09-27T15:51:55;1.50;;;1.40;;
7471;SDS011;3777;48.722;8.110;2022-09-27T15:54:24;4.03;;;1.43;;
7471;SDS011;3777;48.722;8.110;2022-09-27T15:56:54;2.07;;;1.33;;
7471;SDS011;3777;48.722;8.110;2022-09-27T15:59:25;2.00;;;1.23;;
7471;SDS011;3777;48.722;8.110;2022-09-27T16:01:55;2.80;;;1.50;;
7471;SDS011;3777;48.722;8.110;2022-09-27T16:04:23;2.00;;;1.40;;
7471;SDS011;3777;48.722;8.110;2022-09-27T16:06:51;3.10;;;1.40;;
7471;SDS011;3777;48.722;8.110;2022-09-27T16:09:18;2.37;;;1.50;;